Time;durP1;ratioP1;P1;durP2;ratioP2;P2;SDS_P1;SDS_P2;PMS_P1;PMS_P2;Temp;Humidity;BMP_temperature;BMP_pressure;BME280_temperature;BME280_humidity;BME280_pressure;Samples;Min_cycle;Max_cycle;Signal;HPM_P1;HPM_P2
2022/08/05 00:01:43;;;;;;;2.53;2.30;;;27.20;45.10;;;;;;5046233;28;20052;-66
2022/08/05 00:04:09;;;;;;;6.05;2.42;;;27.10;44.30;;;;;;5057047;28;20120;-66
2022/08/05 00:06:34;;;;;;;2.40;2.20;;;27.10;44.80;;;;;;5082917;28;20057;-67
2022/08/05 00:09:00;;;;;;;3.00;2.70;;;27.10;44.60;;;;;;5058117;28;20291;-67
2022/08/05 00:11:25;;;;;;;3.22;2.95;;;27.20;45.00;;;;;;5029342;28;20040;-67
2022/08/05 00:13:51;;;;;;;2.28;2.15;;;27.20;44.30;;;;;;5070517;28;20028;-67
2022/08/05 00:16:16;;;;;;;2.78;2.58;;;27.10;44.80;;;;;;5048893;28;20371;-67
2022/08/05 00:18:43;;;;;;;2.63;2.42;;;27.10;45.10;;;;;;5061279;28;20124;-67
2022/08/05 00:21:09;;;;;;;2.30;2.20;;;27.10;44.90;;;;;;5029280;28;20028;-67
2022/08/05 00:23:36;;;;;;;2.60;2.40;;;27.10;43.60;;;;;;5063115;28;20028;-67
2022/08/05 00:26:01;;;;;;;2.67;2.47;;;27.10;44.20;;;;;;5046041;28;20478;-67
2022/08/05 00:28:27;;;;;;;2.60;2.40;;;27.10;44.60;;;;;;5029879;28;20059;-66
2022/08/05 00:30:52;;;;;;;2.50;2.30;;;27.10;44.00;;;;;;5066910;28;20103;-67
2022/08/05 00:33:18;;;;;;;2.50;2.30;;;27.10;44.10;;;;;;5066513;28;20020;-67
2022/08/05 00:35:43;;;;;;;3.50;2.88;;;27.10;44.40;;;;;;5029829;28;20039;-68
2022/08/05 00:38:09;;;;;;;2.20;1.92;;;27.10;44.60;;;;;;5046226;28;20024;-67
2022/08/05 00:40:47;;;;;;;2.55;2.35;;;27.10;43.90;;;;;;5046147;28;20025;-67
2022/08/05 00:43:13;;;;;;;3.67;3.13;;;27.10;44.00;;;;;;5049884;28;20050;-67
2022/08/05 00:45:38;;;;;;;2.33;2.13;;;27.10;44.00;;;;;;5047966;28;20499;-67
2022/08/05 00:48:04;;;;;;;3.15;2.40;;;27.10;44.40;;;;;;5044757;28;20100;-67
2022/08/05 00:50:30;;;;;;;3.65;2.08;;;27.10;43.70;;;;;;5044458;28;20526;-67
2022/08/05 00:52:55;;;;;;;2.33;1.92;;;27.10;44.40;;;;;;5048502;28;20024;-67
2022/08/05 00:55:21;;;;;;;3.08;2.20;;;27.10;44.00;;;;;;5035117;28;20020;-67
2022/08/05 00:57:47;;;;;;;3.92;2.10;;;27.10;44.50;;;;;;5028653;28;20036;-67
2022/08/05 01:00:13;;;;;;;2.45;2.25;;;27.10;44.30;;;;;;5075154;28;20081;-66
2022/08/05 01:02:38;;;;;;;2.28;2.08;;;27.10;44.20;;;;;;5083934;28;20506;-66
2022/08/05 01:05:04;;;;;;;2.90;2.47;;;27.00;44.00;;;;;;5040850;28;20032;-66
2022/08/05 01:07:29;;;;;;;3.05;2.00;;;27.10;44.20;;;;;;5046076;28;20028;-67
2022/08/05 01:09:55;;;;;;;5.18;2.85;;;27.00;43.50;;;;;;5070879;28;20028;-67
2022/08/05 01:12:21;;;;;;;2.88;2.03;;;27.00;44.10;;;;;;5048738;28;20086;-67
2022/08/05 01:15:05;;;;;;;3.60;2.17;;;27.10;43.60;;;;;;5059606;28;20032;-67
2022/08/05 01:17:58;;;;;;;4.60;1.95;;;27.00;43.50;;;;;;5044303;28;20401;-67
2022/08/05 01:20:38;;;;;;;2.40;2.13;;;27.00;44.00;;;;;;5056851;28;20123;-67
2022/08/05 01:23:22;;;;;;;4.30;2.70;;;27.00;44.00;;;;;;5048512;28;20085;-66
2022/08/05 01:26:02;;;;;;;3.50;2.30;;;27.00;44.30;;;;;;5070006;28;20033;-67
2022/08/05 01:28:47;;;;;;;3.40;2.80;;;27.10;44.60;;;;;;5062595;28;20075;-67
2022/08/05 01:31:41;;;;;;;3.72;1.88;;;27.00;43.60;;;;;;5060563;28;20506;-67
2022/08/05 01:34:23;;;;;;;2.65;2.42;;;27.00;43.60;;;;;;5064774;28;20035;-66
2022/08/05 01:36:53;;;;;;;4.60;2.35;;;27.00;43.70;;;;;;5028025;28;20075;-67
2022/08/05 01:39:19;;;;;;;3.47;2.55;;;27.00;44.10;;;;;;5044108;28;20765;-67
2022/08/05 01:41:44;;;;;;;2.63;2.42;;;27.00;44.20;;;;;;5046098;28;20042;-67
2022/08/05 01:44:10;;;;;;;2.25;2.15;;;27.00;44.10;;;;;;5048260;28;20043;-67
2022/08/05 01:46:35;;;;;;;2.97;1.75;;;27.00;44.50;;;;;;5047194;28;20155;-67
2022/08/05 01:49:02;;;;;;;4.03;2.45;;;27.00;44.60;;;;;;5044519;28;20383;-67
2022/08/05 01:51:30;;;;;;;2.47;2.28;;;27.00;44.60;;;;;;5026374;28;20028;-67
2022/08/05 01:53:55;;;;;;;4.05;2.40;;;27.00;45.30;;;;;;5047432;28;20043;-67
2022/08/05 01:56:21;;;;;;;3.60;2.42;;;27.00;45.10;;;;;;5034553;28;20033;-67
2022/08/05 01:58:46;;;;;;;3.45;2.20;;;27.00;44.50;;;;;;5044094;28;20042;-66
2022/08/05 02:01:12;;;;;;;3.78;2.53;;;26.80;43.70;;;;;;5055552;28;20066;-67
2022/08/05 02:03:41;;;;;;;2.42;2.22;;;26.80;45.00;;;;;;5047672;28;20032;-67
2022/08/05 02:06:06;;;;;;;2.67;2.47;;;26.90;45.70;;;;;;5038099;28;20029;-67
2022/08/05 02:08:32;;;;;;;3.05;2.47;;;26.90;46.00;;;;;;5044414;28;20043;-66
2022/08/05 02:11:07;;;;;;;2.63;2.42;;;26.90;46.30;;;;;;5035625;28;20077;-66
2022/08/05 02:13:59;;;;;;;2.25;2.05;;;26.90;46.50;;;;;;5047697;28;20038;-66
2022/08/05 02:16:28;;;;;;;3.72;2.22;;;26.90;46.90;;;;;;5036358;28;22504;-66
2022/08/05 02:19:10;;;;;;;2.58;2.38;;;26.90;47.20;;;;;;5027318;28;20094;-67
2022/08/05 02:21:39;;;;;;;2.53;2.33;;;26.90;47.60;;;;;;5039345;28;20514;-67
2022/08/05 02:24:07;;;;;;;2.45;2.25;;;26.90;47.70;;;;;;5064680;28;20028;-66
2022/08/05 02:26:37;;;;;;;4.57;2.85;;;26.90;47.80;;;;;;5021168;28;20047;-67
2022/08/05 02:29:03;;;;;;;2.47;2.28;;;26.90;47.80;;;;;;5045327;28;20029;-67
2022/08/05 02:31:29;;;;;;;2.40;2.20;;;26.90;47.90;;;;;;5040672;28;20036;-67
2022/08/05 02:34:05;;;;;;;3.83;2.58;;;26.90;48.50;;;;;;5033976;28;20040;-67
2022/08/05 02:36:31;;;;;;;4.53;2.60;;;26.80;48.80;;;;;;5058827;28;20406;-66
2022/08/05 02:38:56;;;;;;;2.53;2.30;;;26.80;48.80;;;;;;5014530;28;20037;-66
2022/08/05 02:41:24;;;;;;;2.55;2.20;;;26.80;49.10;;;;;;5039034;28;20039;-67
2022/08/05 02:43:49;;;;;;;2.80;2.60;;;26.80;49.00;;;;;;5086176;28;20541;-67
2022/08/05 02:46:15;;;;;;;2.72;2.15;;;26.80;48.70;;;;;;5080692;28;20036;-67
2022/08/05 02:48:41;;;;;;;3.90;2.40;;;26.80;48.90;;;;;;5031247;28;20103;-67
2022/08/05 02:51:06;;;;;;;2.67;2.47;;;26.80;48.90;;;;;;5035236;28;20586;-66
2022/08/05 02:53:32;;;;;;;2.83;2.63;;;26.80;49.10;;;;;;5086347;28;20024;-67
2022/08/05 02:55:57;;;;;;;2.50;2.30;;;26.70;48.90;;;;;;5032293;28;20440;-67
2022/08/05 02:58:23;;;;;;;5.47;2.25;;;26.70;49.10;;;;;;5030113;28;20391;-65
2022/08/05 03:00:48;;;;;;;2.60;2.40;;;26.70;49.10;;;;;;5030731;28;20283;-67
2022/08/05 03:03:15;;;;;;;2.97;2.65;;;26.70;48.90;;;;;;5050627;28;20031;-67
2022/08/05 03:05:41;;;;;;;2.65;2.45;;;26.70;49.20;;;;;;5050244;28;20028;-66
2022/08/05 03:08:07;;;;;;;2.95;2.75;;;26.70;49.00;;;;;;5066951;28;20048;-67
2022/08/05 03:10:32;;;;;;;4.90;2.60;;;26.70;49.00;;;;;;5030985;28;20023;-67
2022/08/05 03:12:58;;;;;;;2.88;2.67;;;26.70;48.90;;;;;;5030103;28;20020;-66
2022/08/05 03:15:23;;;;;;;3.70;2.90;;;26.70;49.40;;;;;;5067138;28;20382;-66
2022/08/05 03:17:50;;;;;;;3.03;2.83;;;26.60;49.10;;;;;;5019066;28;20028;-67
2022/08/05 03:20:16;;;;;;;5.32;2.63;;;26.60;48.80;;;;;;5047288;28;20033;-66
2022/08/05 03:22:41;;;;;;;4.85;2.92;;;26.60;49.20;;;;;;5043464;28;20031;-67
2022/08/05 03:25:07;;;;;;;3.60;2.40;;;26.60;48.80;;;;;;5067424;28;20035;-67
2022/08/05 03:27:32;;;;;;;4.07;2.83;;;26.60;49.00;;;;;;5056625;28;20075;-67
2022/08/05 03:29:58;;;;;;;3.83;2.88;;;26.60;49.20;;;;;;5030047;28;20028;-67
2022/08/05 03:32:23;;;;;;;6.82;2.92;;;26.60;49.40;;;;;;5031812;28;20131;-66
2022/08/05 03:34:49;;;;;;;4.38;2.67;;;26.60;49.60;;;;;;5037796;28;20049;-67
2022/08/05 03:37:15;;;;;;;3.42;2.83;;;26.60;49.40;;;;;;5030197;28;20086;-67
2022/08/05 03:39:51;;;;;;;3.67;2.40;;;26.50;49.50;;;;;;5063978;28;20075;-67
2022/08/05 03:42:17;;;;;;;3.03;2.70;;;26.50;49.60;;;;;;5036222;28;20036;-67
2022/08/05 03:44:42;;;;;;;3.40;3.10;;;26.50;49.30;;;;;;5050140;28;20032;-67
2022/08/05 03:47:08;;;;;;;2.60;2.38;;;26.50;49.70;;;;;;5062648;28;20522;-67
2022/08/05 03:49:33;;;;;;;3.83;2.35;;;26.50;49.60;;;;;;5030608;28;20060;-67
2022/08/05 03:52:00;;;;;;;3.25;3.05;;;26.50;49.60;;;;;;5049824;28;20020;-67
2022/08/05 03:55:03;;;;;;;5.30;2.70;;;26.50;49.90;;;;;;5066604;28;20044;-66
2022/08/05 03:57:32;;;;;;;3.85;2.70;;;26.50;50.00;;;;;;5070372;28;20029;-67
2022/08/05 04:00:02;;;;;;;3.08;2.72;;;26.50;50.00;;;;;;5046170;28;20317;-67
2022/08/05 04:02:29;;;;;;;4.13;2.65;;;26.50;50.00;;;;;;5035289;28;20733;-66
2022/08/05 04:04:56;;;;;;;3.35;2.90;;;26.50;50.00;;;;;;5024676;28;20553;-67
2022/08/05 04:07:21;;;;;;;3.42;3.15;;;26.50;50.20;;;;;;5058210;28;20059;-67
2022/08/05 04:09:47;;;;;;;3.65;2.83;;;26.50;50.00;;;;;;5084728;28;20123;-67
2022/08/05 04:12:12;;;;;;;3.85;3.20;;;26.50;50.30;;;;;;5048860;28;20032;-67
2022/08/05 04:14:38;;;;;;;2.95;2.70;;;26.50;50.10;;;;;;5045759;28;20090;-67
2022/08/05 04:17:03;;;;;;;4.03;2.95;;;26.40;49.40;;;;;;5029877;28;20016;-67
2022/08/05 04:19:29;;;;;;;3.63;3.33;;;26.40;50.20;;;;;;5048872;28;20035;-67
2022/08/05 04:21:55;;;;;;;3.28;3.03;;;26.40;49.90;;;;;;5084228;28;20088;-67
2022/08/05 04:24:20;;;;;;;3.13;2.85;;;26.40;50.40;;;;;;5048733;28;20098;-67
2022/08/05 04:26:46;;;;;;;2.83;2.63;;;26.40;50.20;;;;;;5045187;28;20028;-67
2022/08/05 04:29:11;;;;;;;3.00;2.80;;;26.40;50.30;;;;;;5027807;28;20046;-66
2022/08/05 04:31:37;;;;;;;3.53;3.08;;;26.40;50.10;;;;;;5066478;28;20024;-67
2022/08/05 04:34:02;;;;;;;4.80;2.78;;;26.30;49.80;;;;;;5036300;28;20032;-66
2022/08/05 04:36:28;;;;;;;9.20;3.05;;;26.20;51.80;;;;;;5012660;28;20471;-66
2022/08/05 04:38:53;;;;;;;4.57;3.38;;;26.20;51.90;;;;;;5057879;28;20040;-67
2022/08/05 04:41:19;;;;;;;6.95;3.42;;;26.20;51.70;;;;;;5067135;28;20039;-67
2022/08/05 04:43:45;;;;;;;7.80;3.72;;;26.10;51.90;;;;;;5047044;28;20166;-67
2022/08/05 04:46:11;;;;;;;5.60;3.80;;;26.10;52.00;;;;;;5046292;28;20025;-67
2022/08/05 04:48:36;;;;;;;5.40;3.88;;;26.10;52.30;;;;;;5077265;28;20036;-66
2022/08/05 04:53:41;;;;;;;7.32;3.58;;;26.10;52.40;;;;;;5025484;28;20076;-56
2022/08/05 04:56:07;;;;;;;9.30;4.03;;;26.20;52.70;;;;;;5022907;28;20064;-53
2022/08/05 04:58:32;;;;;;;12.75;4.68;;;26.10;53.30;;;;;;5016186;28;20044;-53
2022/08/05 05:00:58;;;;;;;6.65;4.07;;;26.10;53.50;;;;;;5021432;28;20033;-54
2022/08/05 05:03:24;;;;;;;10.38;3.63;;;26.20;53.60;;;;;;5026075;28;20233;-53
2022/08/05 05:05:49;;;;;;;7.10;3.17;;;26.20;53.60;;;;;;5041230;28;20181;-52
2022/08/05 05:08:15;;;;;;;9.13;3.60;;;26.20;53.80;;;;;;5039018;28;20029;-52
2022/08/05 05:10:45;;;;;;;4.03;3.20;;;26.20;53.90;;;;;;5017359;28;20525;-56
2022/08/05 05:13:12;;;;;;;5.00;3.35;;;26.20;54.00;;;;;;5021205;28;20048;-52
2022/08/05 05:15:38;;;;;;;4.80;3.05;;;26.20;53.00;;;;;;5022319;28;20047;-50
2022/08/05 05:18:03;;;;;;;5.15;3.50;;;26.20;52.70;;;;;;5019880;28;20506;-54
2022/08/05 05:20:29;;;;;;;8.85;4.00;;;26.10;52.70;;;;;;5039840;28;20036;-55
2022/08/05 05:22:56;;;;;;;5.35;3.95;;;26.10;53.00;;;;;;5040967;28;20474;-54
2022/08/05 05:25:21;;;;;;;7.07;4.07;;;26.00;53.50;;;;;;5023443;28;20030;-52
2022/08/05 05:27:47;;;;;;;5.47;4.15;;;26.00;53.70;;;;;;5019936;28;20100;-50
2022/08/05 05:30:13;;;;;;;7.65;3.95;;;26.00;54.00;;;;;;5036245;28;20141;-50
2022/08/05 05:32:39;;;;;;;11.88;4.00;;;26.00;54.10;;;;;;5037797;28;20391;-56
2022/08/05 05:35:05;;;;;;;11.23;4.10;;;26.00;54.40;;;;;;5025953;28;20037;-53
2022/08/05 05:37:30;;;;;;;6.60;3.80;;;26.00;54.40;;;;;;5019092;28;20032;-55
2022/08/05 05:39:56;;;;;;;7.75;3.90;;;26.00;54.60;;;;;;5029283;28;20056;-56
2022/08/05 05:42:21;;;;;;;7.63;3.75;;;26.00;54.60;;;;;;5037699;28;20457;-52
2022/08/05 05:44:47;;;;;;;6.78;4.28;;;26.00;54.70;;;;;;5029373;28;20127;-52
2022/08/05 05:47:12;;;;;;;11.23;4.80;;;26.00;54.90;;;;;;5020661;28;20351;-55
2022/08/05 05:49:38;;;;;;;5.65;3.85;;;26.10;55.20;;;;;;5029087;28;20417;-53
2022/08/05 05:52:03;;;;;;;9.85;3.78;;;26.00;55.30;;;;;;5047324;28;21475;-54
2022/08/05 05:54:29;;;;;;;12.25;3.40;;;26.00;55.50;;;;;;5054518;28;20044;-53
2022/08/05 05:56:54;;;;;;;9.35;4.10;;;26.00;55.70;;;;;;5041169;28;20049;-54
2022/08/05 05:59:20;;;;;;;8.32;4.22;;;26.00;55.90;;;;;;5044861;28;20036;-53
2022/08/05 06:01:45;;;;;;;13.15;4.60;;;26.00;56.00;;;;;;5061227;28;20493;-51
2022/08/05 06:04:11;;;;;;;8.20;4.10;;;26.10;56.30;;;;;;5057116;28;20036;-54
2022/08/05 06:06:37;;;;;;;8.65;4.50;;;26.00;56.10;;;;;;5041748;28;20490;-51
2022/08/05 06:09:03;;;;;;;10.55;4.75;;;26.00;56.30;;;;;;5041707;28;20029;-51
2022/08/05 06:11:29;;;;;;;10.40;4.35;;;26.00;56.50;;;;;;5043341;28;20401;-53
2022/08/05 06:13:54;;;;;;;5.68;3.83;;;25.90;56.60;;;;;;5060868;28;20028;-53
2022/08/05 06:16:20;;;;;;;7.43;4.05;;;25.80;56.80;;;;;;5041705;28;20402;-56
2022/08/05 06:18:45;;;;;;;8.25;3.92;;;25.80;57.70;;;;;;5040096;28;20490;-56
2022/08/05 06:21:11;;;;;;;6.25;3.97;;;25.80;57.20;;;;;;5039582;28;20031;-54
2022/08/05 06:23:36;;;;;;;13.73;3.97;;;25.90;57.20;;;;;;5043199;28;20070;-53
2022/08/05 06:26:02;;;;;;;8.57;3.80;;;25.90;57.30;;;;;;5043934;28;20109;-55
2022/08/05 06:28:27;;;;;;;5.57;3.67;;;25.90;57.30;;;;;;5006088;28;20437;-55
2022/08/05 06:30:53;;;;;;;10.80;4.03;;;25.90;57.30;;;;;;5053439;28;20436;-52
2022/08/05 06:33:18;;;;;;;10.13;4.15;;;25.90;57.50;;;;;;5060308;28;20080;-56
2022/08/05 06:35:44;;;;;;;7.72;3.72;;;25.90;57.70;;;;;;5049410;28;20033;-50
2022/08/05 06:38:10;;;;;;;8.57;4.25;;;25.90;57.60;;;;;;5040365;28;20045;-56
2022/08/05 06:40:35;;;;;;;17.33;5.03;;;25.90;57.90;;;;;;5050354;28;20746;-53
2022/08/05 06:43:01;;;;;;;95.68;12.07;;;25.90;57.90;;;;;;5060561;28;20023;-56
2022/08/05 06:45:26;;;;;;;138.85;15.65;;;25.90;57.90;;;;;;5053212;28;20021;-50
2022/08/05 06:47:52;;;;;;;141.48;16.60;;;26.00;58.10;;;;;;5040498;28;20408;-53
2022/08/05 06:50:17;;;;;;;88.95;11.43;;;25.90;58.10;;;;;;5046094;28;20048;-54
2022/08/05 06:52:43;;;;;;;102.43;12.23;;;26.00;58.00;;;;;;5060465;28;20240;-49
2022/08/05 06:55:08;;;;;;;59.03;7.85;;;26.00;58.40;;;;;;5057909;28;20366;-50
2022/08/05 06:57:34;;;;;;;53.67;6.88;;;26.00;58.40;;;;;;5022103;28;20561;-53
2022/08/05 07:00:01;;;;;;;21.63;5.70;;;26.00;58.70;;;;;;5041601;28;20033;-55
2022/08/05 07:02:27;;;;;;;22.40;5.50;;;25.90;59.20;;;;;;5060385;28;20029;-52
2022/08/05 07:04:53;;;;;;;20.23;5.70;;;26.00;58.70;;;;;;5060506;28;20123;-50
2022/08/05 07:07:18;;;;;;;13.60;4.70;;;26.00;59.10;;;;;;5039392;28;20033;-51
2022/08/05 07:09:44;;;;;;;14.77;6.20;;;26.00;58.50;;;;;;5039858;28;20044;-54
2022/08/05 07:16:48;;;;;;;25.00;9.30;;;25.90;58.50;;;;;;5057457;28;20119;-57
2022/08/05 07:17:39;;;;;;;15.20;6.93;;;26.00;58.90;;;;;;5003917;28;20354;-50
2022/08/05 07:20:04;;;;;;;11.50;5.70;;;26.10;58.80;;;;;;5003065;28;21431;-56
2022/08/05 07:22:30;;;;;;;9.95;4.93;;;26.00;59.00;;;;;;5023088;28;20450;-53
2022/08/05 07:24:59;;;;;;;9.95;4.43;;;26.00;58.80;;;;;;5024307;28;20410;-53
2022/08/05 07:27:25;;;;;;;7.13;4.15;;;26.00;59.50;;;;;;5041396;28;20033;-56
2022/08/05 07:29:50;;;;;;;7.43;3.90;;;26.00;59.10;;;;;;5042356;28;20131;-51
2022/08/05 07:32:16;;;;;;;6.63;4.25;;;26.00;58.90;;;;;;5027381;28;20143;-50
2022/08/05 07:34:41;;;;;;;5.65;3.70;;;26.10;59.30;;;;;;5023394;28;20304;-53
2022/08/05 07:37:07;;;;;;;7.72;4.07;;;26.10;59.20;;;;;;5037394;28;20033;-52
2022/08/05 07:39:33;;;;;;;11.20;4.63;;;26.10;58.80;;;;;;5041232;28;20529;-56
2022/08/05 07:41:58;;;;;;;14.52;4.68;;;26.20;59.50;;;;;;5025141;28;20037;-52
2022/08/05 07:44:24;;;;;;;10.95;4.13;;;26.20;60.10;;;;;;5022416;28;20064;-59
2022/08/05 07:46:49;;;;;;;13.77;4.15;;;26.20;59.20;;;;;;5032856;28;20551;-55
2022/08/05 07:49:15;;;;;;;5.72;3.75;;;26.20;58.80;;;;;;5041512;28;20440;-54
2022/08/05 07:51:40;;;;;;;10.05;4.30;;;26.20;58.60;;;;;;5033792;28;20158;-55
2022/08/05 07:54:06;;;;;;;10.93;4.18;;;26.20;58.70;;;;;;5022864;28;20030;-53
2022/08/05 07:56:31;;;;;;;16.63;4.03;;;26.30;58.40;;;;;;5028407;28;20021;-55
2022/08/05 07:58:57;;;;;;;13.05;4.45;;;26.30;58.50;;;;;;5041023;28;20035;-52
2022/08/05 08:01:24;;;;;;;8.23;3.78;;;26.30;58.50;;;;;;5038059;28;20029;-55
2022/08/05 08:03:50;;;;;;;8.63;4.10;;;26.30;58.30;;;;;;5022754;28;20049;-54
2022/08/05 08:06:15;;;;;;;10.13;3.65;;;26.30;58.30;;;;;;5025237;28;20091;-55
2022/08/05 08:08:41;;;;;;;9.35;3.97;;;26.40;58.30;;;;;;5040744;28;20037;-53
2022/08/05 08:11:06;;;;;;;10.30;4.50;;;26.30;58.20;;;;;;5041767;28;20099;-53
2022/08/05 08:13:32;;;;;;;10.98;4.25;;;26.30;58.20;;;;;;5022124;28;20030;-52
2022/08/05 08:15:57;;;;;;;10.35;4.20;;;26.30;58.20;;;;;;5022175;28;20037;-57
2022/08/05 08:18:23;;;;;;;9.75;3.85;;;26.40;58.40;;;;;;5040265;28;20017;-52
2022/08/05 08:20:50;;;;;;;6.15;3.28;;;26.30;58.00;;;;;;5041726;28;20108;-52
2022/08/05 08:23:17;;;;;;;7.25;3.88;;;26.30;57.90;;;;;;5024673;28;20094;-55
2022/08/05 08:25:42;;;;;;;3.88;3.20;;;26.30;57.70;;;;;;5020774;28;20375;-55
2022/08/05 08:28:08;;;;;;;6.03;3.35;;;26.40;57.70;;;;;;5037166;28;20158;-57
2022/08/05 08:30:33;;;;;;;5.70;3.28;;;26.40;57.50;;;;;;5041172;28;20427;-55
2022/08/05 08:32:59;;;;;;;6.57;3.20;;;26.40;57.50;;;;;;5028588;28;20403;-53
2022/08/05 08:35:24;;;;;;;4.60;3.17;;;26.40;58.10;;;;;;5022261;28;20042;-57
2022/08/05 08:37:50;;;;;;;6.47;2.97;;;26.40;57.40;;;;;;5033032;28;20098;-53
2022/08/05 08:40:17;;;;;;;5.55;3.10;;;26.40;57.20;;;;;;5040616;28;20048;-54
2022/08/05 08:42:44;;;;;;;4.47;2.85;;;26.50;57.10;;;;;;5031167;28;20033;-51
2022/08/05 08:45:09;;;;;;;5.78;2.95;;;26.50;57.10;;;;;;5020370;28;20033;-56
2022/08/05 08:47:35;;;;;;;5.93;3.47;;;26.40;56.90;;;;;;5015371;28;20087;-54
2022/08/05 08:50:01;;;;;;;5.75;3.42;;;26.50;57.10;;;;;;5039588;28;20024;-56
2022/08/05 08:52:30;;;;;;;4.72;3.20;;;26.50;57.00;;;;;;5023465;28;20366;-53
2022/08/05 08:54:56;;;;;;;6.40;3.05;;;26.50;57.00;;;;;;5031769;28;20136;-51
2022/08/05 08:57:22;;;;;;;5.82;3.38;;;26.50;56.80;;;;;;5036081;28;20124;-50
2022/08/05 08:59:50;;;;;;;3.80;2.67;;;26.50;57.10;;;;;;5049348;28;20043;-55
2022/08/05 09:02:17;;;;;;;3.40;3.10;;;26.50;57.10;;;;;;5022687;28;20053;-51
2022/08/05 09:04:43;;;;;;;5.20;3.10;;;26.50;57.10;;;;;;5019838;28;20059;-55
2022/08/05 09:07:08;;;;;;;9.20;3.50;;;26.50;57.20;;;;;;5022012;28;20578;-50
2022/08/05 09:09:34;;;;;;;3.65;3.15;;;26.50;57.10;;;;;;5039854;28;20029;-57
2022/08/05 09:12:01;;;;;;;6.30;3.33;;;26.50;57.30;;;;;;5027170;28;20152;-57
2022/08/05 09:14:26;;;;;;;4.95;3.40;;;26.50;57.40;;;;;;5003361;28;20130;-53
2022/08/05 09:16:52;;;;;;;4.78;3.90;;;26.50;57.40;;;;;;5003122;28;20038;-54
2022/08/05 09:19:17;;;;;;;6.45;3.38;;;26.50;57.20;;;;;;5038062;28;20033;-51
2022/08/05 09:21:43;;;;;;;7.28;3.50;;;26.50;57.20;;;;;;5040454;28;20501;-51
2022/08/05 09:24:09;;;;;;;4.97;3.50;;;26.50;57.00;;;;;;5024719;28;20037;-53
2022/08/05 09:26:35;;;;;;;4.68;3.70;;;26.50;56.90;;;;;;5002721;28;20450;-53
2022/08/05 09:29:03;;;;;;;6.05;4.00;;;26.50;57.50;;;;;;5016652;28;20126;-54
2022/08/05 09:31:29;;;;;;;6.72;4.18;;;26.50;57.40;;;;;;5040084;28;20029;-54
2022/08/05 09:34:00;;;;;;;5.82;4.00;;;26.50;57.20;;;;;;5009128;28;20042;-56
2022/08/05 09:36:44;;;;;;;6.28;4.20;;;26.50;57.20;;;;;;5002898;28;20034;-55
2022/08/05 09:39:11;;;;;;;4.45;3.22;;;26.50;56.80;;;;;;5032010;28;20033;-56
2022/08/05 09:41:56;;;;;;;4.53;3.25;;;26.50;56.70;;;;;;5041865;28;20040;-54
2022/08/05 09:44:42;;;;;;;6.40;4.13;;;26.50;56.70;;;;;;5028043;28;20060;-56
2022/08/05 09:47:09;;;;;;;4.15;3.75;;;26.50;56.80;;;;;;5021439;28;20037;-53
2022/08/05 09:49:38;;;;;;;4.63;3.58;;;26.50;57.00;;;;;;5036802;28;20040;-56
2022/08/05 09:52:21;;;;;;;5.72;3.70;;;26.50;56.80;;;;;;5030298;28;20119;-55
2022/08/05 09:54:56;;;;;;;3.65;3.03;;;26.50;56.80;;;;;;5035181;28;20120;-53
2022/08/05 09:57:32;;;;;;;5.38;3.83;;;26.60;56.70;;;;;;5032535;28;20494;-55
2022/08/05 09:59:59;;;;;;;3.55;3.25;;;26.60;56.60;;;;;;5049917;28;20715;-50
2022/08/05 10:02:32;;;;;;;3.17;2.95;;;26.60;56.60;;;;;;5050176;28;20033;-53
2022/08/05 10:05:10;;;;;;;4.00;3.30;;;26.60;56.50;;;;;;5019325;28;20037;-55
2022/08/05 10:07:45;;;;;;;4.25;3.53;;;26.60;56.40;;;;;;5020509;28;20473;-51
2022/08/05 10:10:11;;;;;;;3.85;3.45;;;26.60;56.30;;;;;;5038076;28;20040;-56
2022/08/05 10:12:50;;;;;;;4.68;3.67;;;26.60;56.30;;;;;;5040327;28;20033;-50
2022/08/05 10:15:19;;;;;;;2.90;2.70;;;26.60;56.30;;;;;;5021939;28;20227;-57
2022/08/05 10:18:05;;;;;;;4.30;3.08;;;26.60;56.20;;;;;;5019214;28;20113;-52
2022/08/05 10:20:31;;;;;;;4.88;3.83;;;26.60;56.40;;;;;;5028176;28;20413;-53
2022/08/05 10:22:57;;;;;;;4.43;3.30;;;26.70;56.30;;;;;;5050456;28;20037;-53
2022/08/05 10:25:22;;;;;;;4.28;2.95;;;26.70;56.20;;;;;;5024028;28;20372;-57
2022/08/05 10:27:48;;;;;;;4.32;3.13;;;26.70;56.30;;;;;;5003218;28;20035;-55
2022/08/05 10:30:13;;;;;;;3.63;3.13;;;26.70;56.20;;;;;;5018225;28;20033;-52
2022/08/05 10:32:39;;;;;;;3.58;3.00;;;26.70;56.10;;;;;;5040446;28;20422;-50
2022/08/05 10:35:05;;;;;;;3.70;3.40;;;26.70;56.40;;;;;;5008094;28;20037;-53
2022/08/05 10:37:30;;;;;;;3.45;3.10;;;26.70;56.10;;;;;;5020222;28;20107;-55
2022/08/05 10:39:57;;;;;;;3.15;2.95;;;26.70;56.20;;;;;;5013784;28;20040;-54
2022/08/05 10:42:23;;;;;;;4.13;3.38;;;26.70;56.20;;;;;;5022111;28;20450;-56
2022/08/05 10:44:49;;;;;;;3.97;3.38;;;26.70;56.20;;;;;;5011787;28;20033;-53
2022/08/05 10:47:16;;;;;;;3.47;3.03;;;26.80;56.20;;;;;;4986011;28;20037;-55
2022/08/05 10:50:05;;;;;;;4.03;3.47;;;26.70;56.20;;;;;;5028830;28;20044;-57
2022/08/05 10:52:58;;;;;;;3.78;3.45;;;26.80;56.50;;;;;;5043616;28;20036;-56
2022/08/05 10:55:24;;;;;;;3.35;2.80;;;26.80;56.30;;;;;;5026378;28;20028;-54
2022/08/05 10:58:06;;;;;;;4.35;3.60;;;26.80;56.40;;;;;;5005876;28;20029;-57
2022/08/05 11:00:31;;;;;;;5.57;3.65;;;26.80;56.10;;;;;;5037414;28;20052;-55
2022/08/05 11:03:06;;;;;;;4.40;3.50;;;26.80;56.10;;;;;;5025556;28;20490;-54
2022/08/05 11:05:32;;;;;;;4.30;3.85;;;26.80;56.10;;;;;;5029579;28;20120;-52
2022/08/05 11:08:08;;;;;;;4.00;3.30;;;26.80;56.00;;;;;;5005409;28;20036;-55
2022/08/05 11:10:36;;;;;;;5.75;3.60;;;26.80;55.90;;;;;;5028549;28;20037;-56
2022/08/05 11:13:01;;;;;;;4.13;3.83;;;26.80;55.90;;;;;;5016890;28;20060;-56
2022/08/05 11:15:33;;;;;;;6.72;3.70;;;26.80;55.70;;;;;;5017140;28;20036;-54
2022/08/05 11:18:11;;;;;;;3.92;3.63;;;26.80;55.60;;;;;;5018369;28;20546;-54
2022/08/05 11:20:37;;;;;;;3.85;3.50;;;26.80;55.70;;;;;;5032086;28;20143;-51
2022/08/05 11:23:27;;;;;;;3.60;3.30;;;26.80;55.60;;;;;;5040134;28;20565;-55
2022/08/05 11:26:22;;;;;;;3.95;3.00;;;26.80;55.50;;;;;;5026722;28;20099;-55
2022/08/05 11:28:49;;;;;;;4.13;3.72;;;26.80;55.50;;;;;;5016523;28;20037;-50
2022/08/05 11:31:15;;;;;;;4.13;3.72;;;26.80;55.60;;;;;;5031373;28;20017;-56
2022/08/05 11:33:50;;;;;;;3.50;3.20;;;26.80;55.50;;;;;;5051323;28;20287;-57
2022/08/05 11:36:20;;;;;;;3.75;3.35;;;26.80;55.60;;;;;;5035077;28;20546;-52
2022/08/05 11:38:49;;;;;;;6.05;3.60;;;26.80;55.60;;;;;;5033225;28;20541;-52
2022/08/05 11:41:16;;;;;;;3.95;3.42;;;26.90;55.70;;;;;;5046073;28;20074;-54
2022/08/05 11:44:02;;;;;;;4.63;3.42;;;26.90;55.90;;;;;;5040512;28;20064;-58
2022/08/05 11:46:34;;;;;;;3.45;3.13;;;26.90;55.70;;;;;;5024917;28;20113;-53
2022/08/05 11:49:00;;;;;;;5.22;3.70;;;26.90;55.60;;;;;;5021810;28;20033;-54
2022/08/05 11:51:27;;;;;;;4.38;3.20;;;26.90;55.50;;;;;;5035909;28;20322;-53
2022/08/05 11:53:53;;;;;;;3.50;3.20;;;26.90;55.40;;;;;;5040853;28;20072;-56
2022/08/05 11:56:19;;;;;;;3.83;3.53;;;26.90;55.40;;;;;;5027085;28;20029;-56
2022/08/05 11:58:45;;;;;;;2.80;2.60;;;26.90;55.50;;;;;;5020960;28;20048;-56
2022/08/05 12:01:14;;;;;;;4.28;3.55;;;26.90;55.40;;;;;;5030728;28;20033;-55
2022/08/05 12:03:53;;;;;;;4.97;3.28;;;26.90;55.40;;;;;;5050168;28;20048;-51
2022/08/05 12:06:23;;;;;;;3.50;3.20;;;26.90;55.40;;;;;;5033024;28;20033;-55
2022/08/05 12:08:52;;;;;;;5.57;3.15;;;26.90;55.40;;;;;;5020796;28;20030;-51
2022/08/05 12:11:22;;;;;;;3.67;3.38;;;26.90;55.40;;;;;;5032915;28;20044;-50
2022/08/05 12:13:54;;;;;;;3.30;3.00;;;26.90;55.40;;;;;;5041614;28;20745;-54
2022/08/05 12:16:20;;;;;;;3.47;3.17;;;26.90;55.60;;;;;;5031086;28;20108;-51
2022/08/05 12:18:46;;;;;;;4.55;2.80;;;27.00;55.60;;;;;;5003996;28;20045;-54
2022/08/05 12:21:16;;;;;;;3.70;3.33;;;26.90;55.50;;;;;;5031040;28;20594;-56
2022/08/05 12:24:16;;;;;;;4.72;3.08;;;27.00;55.60;;;;;;5041607;28;20017;-53
2022/08/05 12:26:48;;;;;;;5.35;3.38;;;27.00;55.50;;;;;;5040987;28;20322;-50
2022/08/05 12:29:17;;;;;;;3.47;3.17;;;27.00;55.70;;;;;;5041440;28;20036;-54
2022/08/05 12:31:45;;;;;;;3.15;2.88;;;27.00;55.60;;;;;;5053186;28;20134;-50
2022/08/05 12:34:12;;;;;;;3.45;2.83;;;27.00;55.40;;;;;;5061499;28;20473;-52
2022/08/05 12:36:37;;;;;;;3.63;3.30;;;27.00;55.30;;;;;;5049729;28;20375;-50
2022/08/05 12:39:04;;;;;;;3.58;3.28;;;27.10;55.30;;;;;;5041040;28;20039;-52
2022/08/05 12:41:31;;;;;;;7.60;3.15;;;27.00;55.10;;;;;;5049983;28;20021;-55
2022/08/05 12:43:59;;;;;;;3.42;2.80;;;27.10;55.20;;;;;;5043909;28;20024;-56
2022/08/05 12:46:26;;;;;;;3.13;2.83;;;27.00;54.80;;;;;;5030991;28;20055;-55
2022/08/05 12:49:16;;;;;;;5.38;3.10;;;27.00;55.10;;;;;;5050816;28;20219;-55
2022/08/05 12:51:57;;;;;;;3.92;2.83;;;27.10;55.10;;;;;;5049834;28;20121;-55
2022/08/05 12:54:23;;;;;;;3.95;3.35;;;27.10;55.10;;;;;;5059537;28;20034;-55
2022/08/05 12:56:51;;;;;;;4.10;3.00;;;27.10;54.90;;;;;;5051831;28;20493;-55